createdAt,value
2018-10-16T00:02:01.150Z,98063.10
2018-10-16T00:04:30.288Z,98065.27
2018-10-16T00:06:59.473Z,98075.23
2018-10-16T00:09:28.598Z,98076.34
2018-10-16T00:12:05.075Z,98079.33
2018-10-16T00:14:34.215Z,98077.30
2018-10-16T00:17:04.017Z,98076.31
2018-10-16T00:19:33.812Z,98079.98
2018-10-16T00:22:03.297Z,98076.58
2018-10-16T00:24:32.487Z,98081.25
2018-10-16T00:27:01.816Z,98084.76
2018-10-16T00:29:30.988Z,98089.34
2018-10-16T00:32:00.158Z,98087.30
2018-10-16T00:34:29.691Z,98083.10
2018-10-16T00:36:58.837Z,98083.62
2018-10-16T00:39:28.002Z,98095.14
2018-10-16T00:41:58.028Z,98093.64
2018-10-16T00:44:28.042Z,98095.05
2018-10-16T00:46:57.686Z,98101.23
2018-10-16T00:49:26.443Z,98102.21
2018-10-16T00:51:56.106Z,98101.77
2018-10-16T00:54:25.239Z,98102.41
2018-10-16T00:56:54.352Z,98106.16
2018-10-16T00:59:24.030Z,98110.27
2018-10-16T01:01:53.277Z,98114.84
2018-10-16T01:04:22.381Z,98109.62
2018-10-16T01:06:51.524Z,98108.85
2018-10-16T01:09:20.638Z,98107.22
2018-10-16T01:11:49.771Z,98115.19
2018-10-16T01:14:18.982Z,98118.87
2018-10-16T01:16:48.142Z,98115.48
2018-10-16T01:19:17.431Z,98111.09
2018-10-16T01:21:46.537Z,98117.81
2018-10-16T01:24:15.689Z,98120.06
2018-10-16T01:26:44.812Z,98122.88
2018-10-16T01:29:14.134Z,98123.33
2018-10-16T01:31:43.350Z,98127.89
2018-10-16T01:34:12.458Z,98126.50
2018-10-16T01:36:41.584Z,98132.55
2018-10-16T01:39:10.758Z,98124.34
2018-10-16T01:41:40.296Z,98127.66
2018-10-16T01:44:09.051Z,98126.39
2018-10-16T01:46:38.218Z,98120.80
2018-10-16T01:49:07.419Z,98115.30
2018-10-16T01:51:36.615Z,98113.91
2018-10-16T01:54:05.747Z,98110.92
2018-10-16T01:56:34.998Z,98115.05
2018-10-16T01:59:04.132Z,98121.97
2018-10-16T02:01:33.303Z,98120.70
2018-10-16T02:04:02.445Z,98128.31
2018-10-16T02:06:31.595Z,98131.64
2018-10-16T02:09:00.780Z,98129.84
2018-10-16T02:11:29.907Z,98136.75
2018-10-16T02:13:59.050Z,98136.24
2018-10-16T02:16:28.954Z,98140.25
2018-10-16T02:18:58.075Z,98141.61
2018-10-16T02:21:27.412Z,98138.78
2018-10-16T02:23:56.618Z,98146.20
2018-10-16T02:26:25.776Z,98139.88
2018-10-16T02:28:55.326Z,98146.05
2018-10-16T02:31:24.685Z,98150.47
2018-10-16T02:33:53.831Z,98150.64
2018-10-16T02:36:22.995Z,98152.07
2018-10-16T02:38:52.207Z,98145.45
2018-10-16T02:41:21.355Z,98150.51
2018-10-16T02:43:50.634Z,98158.57
2018-10-16T02:46:20.306Z,98150.50
2018-10-16T02:48:49.794Z,98154.60
2018-10-16T02:51:18.439Z,98156.34
2018-10-16T02:53:47.735Z,98158.89
2018-10-16T02:56:16.905Z,98164.26
2018-10-16T02:58:46.045Z,98165.84
2018-10-16T03:01:15.281Z,98165.70
2018-10-16T03:03:44.417Z,98173.61
2018-10-16T03:06:13.587Z,98171.41
2018-10-16T03:08:42.771Z,98170.77
2018-10-16T03:11:11.975Z,98173.60
2018-10-16T03:13:41.110Z,98178.50
2018-10-16T03:16:10.303Z,98185.61
2018-10-16T03:18:39.462Z,98184.16
2018-10-16T03:21:08.593Z,98183.99
2018-10-16T03:23:38.550Z,98187.16
2018-10-16T03:26:07.679Z,98189.84
2018-10-16T03:28:37.243Z,98193.78
2018-10-16T03:31:06.492Z,98192.83
2018-10-16T03:33:35.666Z,98196.33
2018-10-16T03:36:05.722Z,98195.04
2018-10-16T03:38:35.526Z,98203.91
2018-10-16T03:41:04.839Z,98206.61
2018-10-16T03:43:35.614Z,98206.29
2018-10-16T03:46:05.001Z,98214.39
2018-10-16T03:48:34.190Z,98208.24
2018-10-16T03:51:03.358Z,98202.06
2018-10-16T03:53:32.524Z,98209.67
2018-10-16T03:56:01.783Z,98207.14
2018-10-16T03:58:30.946Z,98208.72
2018-10-16T04:01:00.251Z,98213.93
2018-10-16T04:03:29.481Z,98215.66
2018-10-16T04:05:58.613Z,98212.02
2018-10-16T04:08:27.758Z,98210.44
2018-10-16T04:10:56.924Z,98217.27
2018-10-16T04:13:26.066Z,98219.30
2018-10-16T04:15:55.248Z,98217.87
2018-10-16T04:18:24.367Z,98220.55
2018-10-16T04:20:53.518Z,98221.15
2018-10-16T04:23:22.627Z,98218.44
2018-10-16T04:25:51.810Z,98218.94
2018-10-16T04:28:20.963Z,98217.16
2018-10-16T04:30:50.102Z,98219.05
2018-10-16T04:33:19.763Z,98226.27
2018-10-16T04:35:48.886Z,98221.57
2018-10-16T04:38:18.054Z,98217.48
2018-10-16T04:40:47.204Z,98219.38
2018-10-16T04:43:16.744Z,98223.00
2018-10-16T04:45:45.563Z,98231.85
2018-10-16T04:48:14.721Z,98233.14
2018-10-16T04:50:43.869Z,98231.09
2018-10-16T04:53:13.399Z,98229.48
2018-10-16T04:55:42.526Z,98230.75
2018-10-16T04:58:12.284Z,98232.11
2018-10-16T05:00:41.458Z,98236.14
2018-10-16T05:03:10.606Z,98232.75
2018-10-16T05:05:39.766Z,98233.06
2018-10-16T05:08:08.904Z,98228.31
2018-10-16T05:10:38.050Z,98230.09
2018-10-16T05:13:07.308Z,98235.18
2018-10-16T05:15:36.793Z,98232.00
2018-10-16T05:18:05.922Z,98239.28
2018-10-16T05:20:35.379Z,98240.88
2018-10-16T05:23:04.818Z,98237.19
2018-10-16T05:25:35.045Z,98233.57
2018-10-16T05:28:05.079Z,98238.84
2018-10-16T05:30:34.456Z,98241.09
2018-10-16T05:33:03.867Z,98247.11
2018-10-16T05:35:33.258Z,98249.94
2018-10-16T05:38:02.468Z,98255.98
2018-10-16T05:40:31.638Z,98253.00
2018-10-16T05:43:00.795Z,98259.84
2018-10-16T05:45:32.663Z,98258.85
2018-10-16T05:48:02.450Z,98260.14
2018-10-16T05:50:32.358Z,98255.87
2018-10-16T05:53:01.514Z,98260.05
2018-10-16T05:55:30.706Z,98262.48
2018-10-16T05:57:59.897Z,98265.70
2018-10-16T06:00:39.666Z,98258.98
2018-10-16T06:03:09.734Z,98269.27
2018-10-16T06:05:39.060Z,98269.67
2018-10-16T06:08:08.520Z,98269.95
2018-10-16T06:10:37.953Z,98272.81
2018-10-16T06:13:07.163Z,98280.09
2018-10-16T06:15:36.330Z,98275.98
2018-10-16T06:18:06.131Z,98279.81
2018-10-16T06:20:35.321Z,98289.35
2018-10-16T06:23:04.475Z,98280.66
2018-10-16T06:25:33.605Z,98288.91
2018-10-16T06:28:14.882Z,98294.81
2018-10-16T06:30:44.252Z,98292.98
2018-10-16T06:33:13.848Z,98302.53
2018-10-16T06:35:43.022Z,98298.96
2018-10-16T06:38:12.178Z,98302.08
2018-10-16T06:40:41.717Z,98304.46
2018-10-16T06:43:10.751Z,98309.48
2018-10-16T06:45:40.394Z,98311.60
2018-10-16T06:48:09.836Z,98316.91
2018-10-16T06:50:40.000Z,98316.61
2018-10-16T06:53:08.921Z,98311.81
2018-10-16T06:55:38.022Z,98314.72
2018-10-16T06:58:08.149Z,98320.44
2018-10-16T07:00:37.314Z,98317.62
2018-10-16T07:03:07.243Z,98315.55
2018-10-16T07:05:36.421Z,98315.41
2018-10-16T07:08:05.666Z,98320.92
2018-10-16T07:10:35.115Z,98328.21
2018-10-16T07:13:04.230Z,98322.07
2018-10-16T07:15:33.434Z,98327.19
2018-10-16T07:18:02.778Z,98329.67
2018-10-16T07:20:31.930Z,98322.73
2018-10-16T07:23:01.086Z,98322.82
2018-10-16T07:25:31.058Z,98320.75
2018-10-16T07:28:00.270Z,98327.60
2018-10-16T07:30:29.487Z,98315.59
2018-10-16T07:32:58.726Z,98319.06
2018-10-16T07:35:27.997Z,98318.55
2018-10-16T07:37:57.449Z,98323.47
2018-10-16T07:40:27.307Z,98323.92
2018-10-16T07:42:57.048Z,98331.65
2018-10-16T07:45:27.111Z,98335.55
2018-10-16T07:47:56.381Z,98331.66
2018-10-16T07:50:25.202Z,98338.46
2018-10-16T07:52:54.411Z,98338.92
2018-10-16T07:55:23.617Z,98337.48
2018-10-16T07:57:52.807Z,98344.56
2018-10-16T08:00:22.468Z,98345.95
2018-10-16T08:02:51.595Z,98347.44
2018-10-16T08:05:20.719Z,98345.23
2018-10-16T08:07:50.066Z,98347.63
2018-10-16T08:10:19.274Z,98344.72
2018-10-16T08:12:48.388Z,98348.95
2018-10-16T08:15:17.546Z,98346.06
2018-10-16T08:17:47.063Z,98339.55
2018-10-16T08:20:16.215Z,98342.09
2018-10-16T08:22:45.349Z,98345.27
2018-10-16T08:25:14.510Z,98340.69
2018-10-16T08:27:43.639Z,98341.34
2018-10-16T08:30:12.754Z,98340.70
2018-10-16T08:32:43.359Z,98345.45
2018-10-16T08:35:12.503Z,98342.34
2018-10-16T08:37:52.474Z,98339.48
2018-10-16T08:40:21.974Z,98339.74
2018-10-16T08:43:21.353Z,98333.37
2018-10-16T08:46:07.557Z,98334.63
2018-10-16T08:48:53.699Z,98331.48
2018-10-16T08:51:50.224Z,98332.45
2018-10-16T08:54:19.713Z,98338.49
2018-10-16T08:56:48.890Z,98342.12
2018-10-16T08:59:18.051Z,98344.71
2018-10-16T09:01:47.607Z,98339.87
2018-10-16T09:04:16.750Z,98342.52
2018-10-16T09:06:45.941Z,98336.20
2018-10-16T09:09:16.339Z,98333.22
2018-10-16T09:11:46.854Z,98326.84
2018-10-16T09:14:16.669Z,98323.77
2018-10-16T09:16:47.098Z,98318.83
2018-10-16T09:19:16.244Z,98318.73
2018-10-16T09:21:45.374Z,98310.23
2018-10-16T09:24:14.652Z,98314.17
2018-10-16T09:26:43.866Z,98319.22
2018-10-16T09:29:13.049Z,98317.31
2018-10-16T09:31:42.443Z,98316.98
2018-10-16T09:34:11.633Z,98308.51
2018-10-16T09:36:40.778Z,98311.05
2018-10-16T09:39:11.347Z,98308.65
2018-10-16T09:41:40.541Z,98312.36
2018-10-16T09:44:09.728Z,98313.25
2018-10-16T09:46:39.415Z,98315.69
2018-10-16T09:49:08.703Z,98314.23
2018-10-16T09:51:38.611Z,98311.41
2018-10-16T09:54:07.990Z,98318.16
2018-10-16T09:56:36.999Z,98317.09
2018-10-16T09:59:06.155Z,98321.27
2018-10-16T10:01:41.029Z,98312.80
2018-10-16T10:04:10.218Z,98317.69
2018-10-16T10:06:39.366Z,98314.39
2018-10-16T10:09:10.519Z,98303.16
2018-10-16T10:11:40.550Z,98305.63
2018-10-16T10:14:10.036Z,98298.05
2018-10-16T10:16:39.531Z,98299.02
2018-10-16T10:19:08.727Z,98292.62
2018-10-16T10:21:38.350Z,98291.74
2018-10-16T10:24:07.521Z,98296.41
2018-10-16T10:26:37.494Z,98295.92
2018-10-16T10:29:06.626Z,98293.36
2018-10-16T10:31:35.766Z,98285.68
2018-10-16T10:34:04.917Z,98284.25
2018-10-16T10:36:34.030Z,98284.78
2018-10-16T10:39:03.775Z,98278.75
2018-10-16T10:41:33.278Z,98274.27
2018-10-16T10:44:02.418Z,98268.47
2018-10-16T10:46:31.554Z,98271.09
2018-10-16T10:49:00.754Z,98272.13
2018-10-16T10:51:30.727Z,98264.56
2018-10-16T10:53:59.787Z,98261.00
2018-10-16T10:56:29.117Z,98256.83
2018-10-16T10:58:58.027Z,98251.84
2018-10-16T11:01:27.186Z,98252.60
2018-10-16T11:03:56.383Z,98254.80
2018-10-16T11:06:25.962Z,98247.83
2018-10-16T11:08:55.270Z,98246.88
2018-10-16T11:11:24.403Z,98248.85
2018-10-16T11:13:53.562Z,98243.18
2018-10-16T11:16:22.713Z,98247.52
2018-10-16T11:18:51.897Z,98251.13
2018-10-16T11:21:21.035Z,98246.92
2018-10-16T11:23:50.214Z,98248.77
2018-10-16T11:26:19.386Z,98243.42
2018-10-16T11:28:48.774Z,98239.77
2018-10-16T11:31:17.968Z,98239.72
2018-10-16T11:33:47.100Z,98232.42
2018-10-16T11:36:16.232Z,98239.38
2018-10-16T11:38:45.823Z,98233.91
2018-10-16T11:41:14.988Z,98232.61
2018-10-16T11:43:44.174Z,98228.97
2018-10-16T11:46:13.327Z,98232.67
2018-10-16T11:48:42.469Z,98230.09
2018-10-16T11:51:11.642Z,98232.58
2018-10-16T11:53:41.366Z,98232.98
2018-10-16T11:56:10.564Z,98226.49
2018-10-16T11:58:41.230Z,98226.25
2018-10-16T12:01:10.479Z,98227.17
2018-10-16T12:03:40.038Z,98225.62
2018-10-16T12:06:09.853Z,98226.97
2018-10-16T12:08:39.019Z,98222.16
2018-10-16T12:11:08.459Z,98224.80
2018-10-16T12:13:37.606Z,98227.16
2018-10-16T12:16:06.818Z,98231.80
2018-10-16T12:18:40.120Z,98225.59
2018-10-16T12:21:15.672Z,98218.37
2018-10-16T12:23:45.134Z,98223.80
2018-10-16T12:26:14.647Z,98227.72
2018-10-16T12:28:43.758Z,98222.55
2018-10-16T12:31:12.995Z,98217.16
2018-10-16T12:33:42.075Z,98213.75
2018-10-16T12:36:11.278Z,98220.31
2018-10-16T12:38:40.611Z,98220.83
2018-10-16T12:41:09.651Z,98213.82
2018-10-16T12:43:38.942Z,98212.30
2018-10-16T12:46:08.002Z,98214.89
2018-10-16T12:48:37.150Z,98210.45
2018-10-16T12:51:06.292Z,98215.91
2018-10-16T12:53:35.395Z,98207.61
2018-10-16T12:56:05.262Z,98205.01
2018-10-16T12:58:34.915Z,98209.16
2018-10-16T13:01:04.050Z,98207.09
2018-10-16T13:03:33.202Z,98207.38
2018-10-16T13:06:02.414Z,98206.85
2018-10-16T13:08:31.522Z,98202.94
2018-10-16T13:11:00.716Z,98207.64
2018-10-16T13:13:29.814Z,98207.88
2018-10-16T13:15:59.463Z,98207.86
2018-10-16T13:18:28.961Z,98206.06
2018-10-16T13:20:57.756Z,98211.00
2018-10-16T13:23:26.451Z,98210.20
2018-10-16T13:25:55.614Z,98209.70
2018-10-16T13:28:24.799Z,98213.84
2018-10-16T13:30:53.990Z,98215.92
2018-10-16T13:33:23.175Z,98215.39
2018-10-16T13:35:52.362Z,98214.88
2018-10-16T13:38:21.522Z,98216.17
2018-10-16T13:40:50.682Z,98214.38
2018-10-16T13:43:19.970Z,98211.25
2018-10-16T13:45:49.106Z,98210.48
2018-10-16T13:48:18.368Z,98206.05
2018-10-16T13:50:47.708Z,98205.03
2018-10-16T13:53:16.594Z,98208.92
2018-10-16T13:55:46.278Z,98205.29
2018-10-16T13:58:15.422Z,98202.69
2018-10-16T14:00:44.625Z,98208.13
2018-10-16T14:03:13.514Z,98201.64
2018-10-16T14:05:42.681Z,98202.44
2018-10-16T14:08:11.887Z,98201.39
2018-10-16T14:10:40.931Z,98200.38
2018-10-16T14:13:10.034Z,98198.27
2018-10-16T14:15:39.466Z,98192.83
2018-10-16T14:18:09.634Z,98196.98
2018-10-16T14:20:39.046Z,98198.27
2018-10-16T14:23:08.343Z,98196.47
2018-10-16T14:25:37.099Z,98197.77
2018-10-16T14:28:06.728Z,98192.58
2018-10-16T14:30:35.787Z,98196.47
2018-10-16T14:33:05.170Z,98195.93
2018-10-16T14:35:34.335Z,98200.35
2018-10-16T14:38:03.588Z,98196.73
2018-10-16T14:40:32.707Z,98201.12
2018-10-16T14:43:01.996Z,98197.23
2018-10-16T14:45:31.187Z,98190.99
2018-10-16T14:48:00.687Z,98193.07
2018-10-16T14:50:29.725Z,98195.67
2018-10-16T14:52:58.961Z,98192.30
2018-10-16T14:55:28.074Z,98201.36
2018-10-16T14:57:57.232Z,98199.79
2018-10-16T15:00:26.354Z,98197.20
2018-10-16T15:02:55.119Z,98191.50
2018-10-16T15:05:24.262Z,98188.59
2018-10-16T15:07:53.442Z,98191.16
2018-10-16T15:10:23.009Z,98186.22
2018-10-16T15:12:52.076Z,98185.62
2018-10-16T15:15:21.299Z,98183.78
2018-10-16T15:17:50.502Z,98185.61
2018-10-16T15:20:19.711Z,98184.88
2018-10-16T15:22:47.933Z,98188.77
2018-10-16T15:25:17.136Z,98185.30
2018-10-16T15:27:46.371Z,98189.69
2018-10-16T15:30:15.781Z,98190.72
2018-10-16T15:32:45.163Z,98193.83
2018-10-16T15:35:14.114Z,98192.48
2018-10-16T15:37:43.920Z,98194.54
2018-10-16T15:40:13.242Z,98192.86
2018-10-16T15:42:42.498Z,98195.41
2018-10-16T15:45:12.706Z,98201.49
2018-10-16T15:47:42.328Z,98198.42
2018-10-16T15:50:12.118Z,98201.22
2018-10-16T15:52:41.794Z,98206.78
2018-10-16T15:55:11.843Z,98206.36
2018-10-16T15:57:41.057Z,98207.03
2018-10-16T16:00:14.730Z,98211.92
2018-10-16T16:02:43.885Z,98211.84
2018-10-16T16:05:13.289Z,98204.98
2018-10-16T16:07:43.093Z,98209.34
2018-10-16T16:10:14.840Z,98212.84
2018-10-16T16:12:43.999Z,98215.55
2018-10-16T16:15:13.818Z,98224.26
2018-10-16T16:17:43.942Z,98227.63
2018-10-16T16:20:14.323Z,98228.90
2018-10-16T16:22:43.387Z,98231.58
2018-10-16T16:25:13.683Z,98234.72
2018-10-16T16:27:42.886Z,98232.43
2018-10-16T16:30:14.904Z,98228.93
2018-10-16T16:32:43.992Z,98231.70
2018-10-16T16:35:13.177Z,98233.03
2018-10-16T16:37:42.710Z,98236.58
2018-10-16T16:40:13.420Z,98242.66
2018-10-16T16:42:42.669Z,98239.92
2018-10-16T16:45:12.603Z,98237.59
2018-10-16T16:47:42.802Z,98233.69
2018-10-16T16:50:12.807Z,98233.80
2018-10-16T16:52:42.269Z,98235.44
2018-10-16T16:55:13.235Z,98234.70
2018-10-16T16:57:42.478Z,98235.47
2018-10-16T17:00:12.778Z,98246.02
2018-10-16T17:02:43.090Z,98246.13
2018-10-16T17:05:13.107Z,98245.58
2018-10-16T17:07:42.644Z,98247.92
2018-10-16T17:10:12.205Z,98250.98
2018-10-16T17:12:42.570Z,98245.69
2018-10-16T17:15:15.671Z,98248.14
2018-10-16T17:17:45.592Z,98247.84
2018-10-16T17:20:14.776Z,98250.54
2018-10-16T17:22:43.950Z,98255.69
2018-10-16T17:25:14.422Z,98255.05
2018-10-16T17:27:44.166Z,98254.61
2018-10-16T17:30:15.973Z,98260.14
2018-10-16T17:32:47.410Z,98259.69
2018-10-16T17:35:16.578Z,98262.97
2018-10-16T17:37:45.789Z,98264.78
2018-10-16T17:40:16.444Z,98269.46
2018-10-16T17:42:45.782Z,98272.44
2018-10-16T17:45:16.883Z,98275.69
2018-10-16T17:47:46.138Z,98273.19
2018-10-16T17:50:17.055Z,98272.27
2018-10-16T17:52:46.298Z,98278.70
2018-10-16T17:55:16.516Z,98279.75
2018-10-16T17:57:46.056Z,98283.47
2018-10-16T18:00:17.679Z,98283.22
2018-10-16T18:02:47.122Z,98281.50
2018-10-16T18:05:16.679Z,98289.48
2018-10-16T18:07:46.382Z,98289.59
2018-10-16T18:10:15.668Z,98289.92
2018-10-16T18:12:46.015Z,98296.05
2018-10-16T18:15:15.673Z,98289.78
2018-10-16T18:17:45.290Z,98294.34
2018-10-16T18:20:16.346Z,98300.06
2018-10-16T18:22:46.222Z,98303.77
2018-10-16T18:25:15.388Z,98304.03
2018-10-16T18:27:45.234Z,98303.61
2018-10-16T18:30:14.975Z,98305.59
2018-10-16T18:32:44.410Z,98306.63
2018-10-16T18:35:13.965Z,98303.02
2018-10-16T18:37:44.366Z,98305.94
2018-10-16T18:40:14.410Z,98301.02
2018-10-16T18:42:43.654Z,98305.42
2018-10-16T18:45:13.830Z,98305.09
2018-10-16T18:47:43.038Z,98306.56
2018-10-16T18:50:13.626Z,98301.30
2018-10-16T18:52:43.219Z,98300.30
2018-10-16T18:55:13.648Z,98305.50
2018-10-16T18:57:42.854Z,98307.31
2018-10-16T19:00:16.317Z,98309.91
2018-10-16T19:02:45.858Z,98319.03
2018-10-16T19:05:15.054Z,98315.00
2018-10-16T19:07:44.561Z,98328.02
2018-10-16T19:10:14.243Z,98321.24
2018-10-16T19:12:43.573Z,98321.95
2018-10-16T19:15:14.910Z,98318.31
2018-10-16T19:17:45.186Z,98320.06
2018-10-16T19:20:16.166Z,98317.73
2018-10-16T19:22:45.914Z,98320.39
2018-10-16T19:25:17.915Z,98325.68
2018-10-16T19:27:47.156Z,98328.44
2018-10-16T19:30:17.017Z,98326.09
2018-10-16T19:32:47.068Z,98323.31
2018-10-16T19:35:16.508Z,98328.12
2018-10-16T19:37:47.289Z,98328.46
2018-10-16T19:40:16.709Z,98337.17
2018-10-16T19:42:45.874Z,98331.59
2018-10-16T19:45:15.827Z,98333.80
2018-10-16T19:47:45.299Z,98341.53
2018-10-16T19:50:14.650Z,98342.23
2018-10-16T19:52:43.870Z,98341.13
2018-10-16T19:55:13.013Z,98341.23
2018-10-16T19:57:42.284Z,98337.30
2018-10-16T20:00:11.504Z,98340.63
2018-10-16T20:02:40.729Z,98340.39
2018-10-16T20:05:10.327Z,98339.25
2018-10-16T20:07:39.699Z,98340.84
2018-10-16T20:10:10.645Z,98343.77
2018-10-16T20:12:40.609Z,98342.41
2018-10-16T20:15:11.435Z,98341.06
2018-10-16T20:17:40.750Z,98344.06
2018-10-16T20:20:11.415Z,98337.33
2018-10-16T20:22:40.682Z,98346.80
2018-10-16T20:25:10.865Z,98348.60
2018-10-16T20:27:40.055Z,98343.56
2018-10-16T20:30:10.218Z,98344.77
2018-10-16T20:32:39.710Z,98339.80
2018-10-16T20:35:09.267Z,98341.61
2018-10-16T20:37:39.021Z,98349.02
2018-10-16T20:40:08.492Z,98352.43
2018-10-16T20:42:38.819Z,98354.20
2018-10-16T20:45:07.706Z,98356.94
2018-10-16T20:47:37.315Z,98356.80
2018-10-16T20:50:07.316Z,98355.78
2018-10-16T20:52:37.249Z,98352.60
2018-10-16T20:55:06.992Z,98352.67
2018-10-16T20:57:36.150Z,98351.11
2018-10-16T21:00:05.780Z,98360.56
2018-10-16T21:02:35.796Z,98361.05
2018-10-16T21:05:05.484Z,98359.73
2018-10-16T21:07:34.809Z,98365.55
2018-10-16T21:10:03.970Z,98364.98
2018-10-16T21:12:33.122Z,98357.14
2018-10-16T21:15:02.387Z,98360.64
2018-10-16T21:17:31.570Z,98361.71
2018-10-16T21:20:00.724Z,98365.17
2018-10-16T21:22:29.942Z,98364.98
2018-10-16T21:24:59.494Z,98364.26
2018-10-16T21:27:28.821Z,98363.52
2018-10-16T21:29:58.042Z,98362.30
2018-10-16T21:32:27.619Z,98359.19
2018-10-16T21:34:56.850Z,98356.81
2018-10-16T21:37:26.538Z,98359.41
2018-10-16T21:39:55.730Z,98361.33
2018-10-16T21:42:24.886Z,98353.47
2018-10-16T21:44:54.017Z,98353.74
2018-10-16T21:47:23.186Z,98354.64
2018-10-16T21:49:52.433Z,98358.35
2018-10-16T21:52:22.100Z,98359.84
2018-10-16T21:54:51.264Z,98356.59
2018-10-16T21:57:20.443Z,98353.42
2018-10-16T21:59:49.578Z,98356.08
2018-10-16T22:02:23.919Z,98354.91
2018-10-16T22:04:53.155Z,98353.75
2018-10-16T22:07:22.486Z,98351.72
2018-10-16T22:09:51.834Z,98340.12
2018-10-16T22:12:21.513Z,98345.02
2018-10-16T22:14:51.437Z,98347.75
2018-10-16T22:17:20.692Z,98346.77
2018-10-16T22:19:49.940Z,98345.77
2018-10-16T22:22:19.119Z,98337.67
2018-10-16T22:24:48.514Z,98341.22
2018-10-16T22:27:17.645Z,98343.52
2018-10-16T22:29:46.798Z,98340.47
2018-10-16T22:32:16.285Z,98349.45
2018-10-16T22:34:45.645Z,98351.00
2018-10-16T22:37:15.182Z,98349.96
2018-10-16T22:39:44.794Z,98352.91
2018-10-16T22:42:15.182Z,98351.97
2018-10-16T22:44:44.747Z,98354.70
2018-10-16T22:47:14.433Z,98356.83
2018-10-16T22:49:43.559Z,98361.28
2018-10-16T22:52:13.566Z,98374.14
2018-10-16T22:54:43.042Z,98366.77
2018-10-16T22:57:12.230Z,98370.91
2018-10-16T22:59:41.722Z,98361.05
2018-10-16T23:02:10.851Z,98365.65
2018-10-16T23:04:40.694Z,98362.19
2018-10-16T23:07:10.010Z,98369.86
2018-10-16T23:09:39.521Z,98374.81
2018-10-16T23:12:09.151Z,98374.03
2018-10-16T23:14:38.307Z,98370.66
2018-10-16T23:17:07.810Z,98367.41
2018-10-16T23:19:37.571Z,98367.05
2018-10-16T23:22:06.718Z,98364.75
2018-10-16T23:24:36.670Z,98361.69
2018-10-16T23:27:07.453Z,98365.25
2018-10-16T23:29:37.397Z,98361.14
2018-10-16T23:32:07.306Z,98360.02
2018-10-16T23:34:37.023Z,98359.09
2018-10-16T23:37:06.650Z,98361.46
2018-10-16T23:39:35.803Z,98364.68
2018-10-16T23:42:05.464Z,98367.56
2018-10-16T23:44:34.646Z,98365.44
2018-10-16T23:47:04.294Z,98365.30
2018-10-16T23:49:33.385Z,98366.33
2018-10-16T23:52:03.326Z,98363.54
2018-10-16T23:54:32.590Z,98369.41
2018-10-16T23:57:01.763Z,98368.50
2018-10-16T23:59:30.933Z,98369.20
